Silk Hope, North Carolina
Current Conditions -  °F | °C
As of 4:35 AM on Sunday 26 Oct 2014 (Local Time) from K5W8 Reporting Station
Clear Clear  
Wind Chill: 42°   Ceiling: Unl
Heat Index: 42°   Visibility: 10mi
Dew Point: 41°   Wind: 0mph
Humidity: 97%   Direction: NA
Pressure: 29.86"   Gusts: NA
Location:  35.7397°N, 79.4342°W
Report Text: K5W8 260835Z AUTO 00000KT 10SM CLR 06/05 A2986 RMK AO2 T00550050
Loading
Personal Weather Stations






























Interactive Weather Map
Tropical Storm Tracking
New forecast layout! Learn more

10-Day Weather Forecast

Advertisements
Track Severe Weather on mobile